createdAt,value
2023-05-14T00:00:03.533Z,8.69
2023-05-14T00:02:53.950Z,8.66
2023-05-14T00:05:20.700Z,8.65
2023-05-14T00:07:47.201Z,8.64
2023-05-14T00:10:13.753Z,8.63
2023-05-14T00:12:40.329Z,8.67
2023-05-14T00:15:07.557Z,8.68
2023-05-14T00:17:34.101Z,8.66
2023-05-14T00:20:00.635Z,8.66
2023-05-14T00:22:27.160Z,8.65
2023-05-14T00:24:54.296Z,8.62
2023-05-14T00:27:20.832Z,8.64
2023-05-14T00:29:48.466Z,8.61
2023-05-14T00:32:15.096Z,8.58
2023-05-14T00:34:41.622Z,8.58
2023-05-14T00:37:08.135Z,8.58
2023-05-14T00:39:34.646Z,8.52
2023-05-14T00:42:01.194Z,8.48
2023-05-14T00:44:27.910Z,8.45
2023-05-14T00:46:54.805Z,8.45
2023-05-14T00:49:21.879Z,8.43
2023-05-14T00:51:48.444Z,8.41
2023-05-14T00:54:17.513Z,8.35
2023-05-14T00:56:45.517Z,8.31
2023-05-14T00:59:13.286Z,8.27
2023-05-14T01:01:39.934Z,8.25
2023-05-14T01:04:07.263Z,8.26
2023-05-14T01:06:59.938Z,8.23
2023-05-14T01:09:41.783Z,8.22
2023-05-14T01:12:33.759Z,8.18
2023-05-14T01:15:20.355Z,8.19
2023-05-14T01:17:55.896Z,8.18
2023-05-14T01:20:22.927Z,8.16
2023-05-14T01:22:50.412Z,8.16
2023-05-14T01:25:17.223Z,8.14
2023-05-14T01:28:02.344Z,8.12
2023-05-14T01:30:35.972Z,8.11
2023-05-14T01:33:09.546Z,8.07
2023-05-14T01:35:36.586Z,8.00
2023-05-14T01:38:06.641Z,7.99
2023-05-14T01:40:35.608Z,8.00
2023-05-14T01:43:03.607Z,7.99
2023-05-14T01:45:30.497Z,8.00
2023-05-14T01:47:57.572Z,7.98
2023-05-14T01:50:24.341Z,7.95
2023-05-14T01:52:53.013Z,7.93
2023-05-14T01:55:19.686Z,7.92
2023-05-14T01:57:46.348Z,7.89
2023-05-14T02:00:13.275Z,7.85
2023-05-14T02:02:42.605Z,7.85
2023-05-14T02:05:11.057Z,7.85
2023-05-14T02:07:38.039Z,7.81
2023-05-14T02:10:05.300Z,7.76
2023-05-14T02:12:31.992Z,7.71
2023-05-14T02:14:58.526Z,7.67
2023-05-14T02:17:26.223Z,7.63
2023-05-14T02:19:52.864Z,7.60
2023-05-14T02:22:19.488Z,7.56
2023-05-14T02:24:46.074Z,7.56
2023-05-14T02:27:12.858Z,7.55
2023-05-14T02:29:39.341Z,7.51
2023-05-14T02:32:06.260Z,7.45
2023-05-14T02:34:34.004Z,7.43
2023-05-14T02:37:01.084Z,7.42
2023-05-14T02:39:27.721Z,7.40
2023-05-14T02:41:54.253Z,7.40
2023-05-14T02:44:20.823Z,7.40
2023-05-14T02:46:47.575Z,7.38
2023-05-14T02:49:14.385Z,7.40
2023-05-14T02:51:40.966Z,7.40
2023-05-14T02:54:07.672Z,7.38
2023-05-14T02:56:34.325Z,7.36
2023-05-14T02:59:00.924Z,7.39
2023-05-14T03:01:28.195Z,7.40
2023-05-14T03:03:56.193Z,7.39
2023-05-14T03:06:22.802Z,7.36
2023-05-14T03:08:49.911Z,7.35
2023-05-14T03:11:16.531Z,7.33
2023-05-14T03:13:43.036Z,7.34
2023-05-14T03:16:09.873Z,7.35
2023-05-14T03:18:36.739Z,7.38
2023-05-14T03:21:03.457Z,7.41
2023-05-14T03:23:31.342Z,7.40
2023-05-14T03:25:58.110Z,7.40
2023-05-14T03:28:25.329Z,7.41
2023-05-14T03:30:52.194Z,7.41
2023-05-14T03:33:19.077Z,7.38
2023-05-14T03:35:45.697Z,7.34
2023-05-14T03:38:15.016Z,7.33
2023-05-14T03:40:41.579Z,7.33
2023-05-14T03:43:08.087Z,7.33
2023-05-14T03:45:34.773Z,7.36
2023-05-14T03:48:01.356Z,7.38
2023-05-14T03:50:29.889Z,7.41
2023-05-14T03:52:56.411Z,7.44
2023-05-14T03:55:23.049Z,7.46
2023-05-14T03:57:49.772Z,7.48
2023-05-14T04:00:16.612Z,7.50
2023-05-14T04:02:45.796Z,7.50
2023-05-14T04:05:12.448Z,7.52
2023-05-14T04:07:38.952Z,7.55
2023-05-14T04:10:06.171Z,7.55
2023-05-14T04:12:35.113Z,7.57
2023-05-14T04:15:02.518Z,7.59
2023-05-14T04:17:29.175Z,7.63
2023-05-14T04:19:56.784Z,7.67
2023-05-14T04:22:24.060Z,7.73
2023-05-14T04:24:51.414Z,7.80
2023-05-14T04:27:21.608Z,7.88
2023-05-14T04:29:49.192Z,7.99
2023-05-14T04:32:16.902Z,8.10
2023-05-14T04:34:43.580Z,8.18
2023-05-14T04:37:10.157Z,8.25
2023-05-14T04:39:37.676Z,8.33
2023-05-14T04:42:05.085Z,8.41
2023-05-14T04:44:35.681Z,8.51
2023-05-14T04:47:02.354Z,8.59
2023-05-14T04:49:29.923Z,8.62
2023-05-14T04:51:57.080Z,8.68
2023-05-14T04:54:23.773Z,8.79
2023-05-14T04:56:50.594Z,8.91
2023-05-14T04:59:17.173Z,9.11
2023-05-14T05:01:44.628Z,9.29
2023-05-14T05:04:11.341Z,9.47
2023-05-14T05:06:37.927Z,9.69
2023-05-14T05:09:04.608Z,9.87
2023-05-14T05:11:31.600Z,10.04
2023-05-14T05:13:58.238Z,10.24
2023-05-14T05:16:24.900Z,10.45
2023-05-14T05:18:51.478Z,10.58
2023-05-14T05:21:18.187Z,10.69
2023-05-14T05:23:44.761Z,10.81
2023-05-14T05:26:11.420Z,10.91
2023-05-14T05:28:37.945Z,11.02
2023-05-14T05:31:04.807Z,11.13
2023-05-14T05:33:31.386Z,11.20
2023-05-14T05:35:57.865Z,11.37
2023-05-14T05:38:24.415Z,11.55
2023-05-14T05:40:51.628Z,11.71
2023-05-14T05:43:18.135Z,11.90
2023-05-14T05:45:45.319Z,12.11
2023-05-14T05:48:11.976Z,12.26
2023-05-14T05:50:39.257Z,12.39
2023-05-14T05:53:05.872Z,12.43
2023-05-14T05:55:32.403Z,12.55
2023-05-14T05:57:58.949Z,12.72
2023-05-14T06:00:26.315Z,12.83
2023-05-14T06:02:53.215Z,12.95
2023-05-14T06:05:20.028Z,13.06
2023-05-14T06:07:46.736Z,13.12
2023-05-14T06:10:14.391Z,13.28
2023-05-14T06:12:40.974Z,13.45
2023-05-14T06:15:08.035Z,13.71
2023-05-14T06:17:34.678Z,13.80
2023-05-14T06:20:02.950Z,13.82
2023-05-14T06:22:29.457Z,13.85
2023-05-14T06:24:56.065Z,13.84
2023-05-14T06:27:22.729Z,13.88
2023-05-14T06:29:49.416Z,13.98
2023-05-14T06:32:16.894Z,14.14
2023-05-14T06:34:43.658Z,14.26
2023-05-14T06:37:10.509Z,14.37
2023-05-14T06:39:37.854Z,14.47
2023-05-14T06:42:04.953Z,14.43
2023-05-14T06:44:31.747Z,14.29
2023-05-14T06:46:58.290Z,14.30
2023-05-14T06:49:24.854Z,14.36
2023-05-14T06:51:51.792Z,14.48
2023-05-14T06:54:19.710Z,14.56
2023-05-14T06:56:47.168Z,14.69
2023-05-14T06:59:13.705Z,14.86
2023-05-14T07:01:40.385Z,15.01
2023-05-14T07:04:07.078Z,15.11
2023-05-14T07:06:34.076Z,15.32
2023-05-14T07:09:01.617Z,15.46
2023-05-14T07:11:28.314Z,15.56
2023-05-14T07:13:54.920Z,15.65
2023-05-14T07:16:21.479Z,15.64
2023-05-14T07:18:48.305Z,15.68
2023-05-14T07:21:22.591Z,15.81
2023-05-14T07:23:55.172Z,15.92
2023-05-14T07:26:23.758Z,16.01
2023-05-14T07:28:50.372Z,16.03
2023-05-14T07:31:17.035Z,16.05
2023-05-14T07:33:43.598Z,16.11
2023-05-14T07:36:10.279Z,16.17
2023-05-14T07:38:36.814Z,16.29
2023-05-14T07:41:03.861Z,16.34
2023-05-14T07:43:30.559Z,16.38
2023-05-14T07:45:57.127Z,16.40
2023-05-14T07:48:23.675Z,16.46
2023-05-14T07:50:51.035Z,16.63
2023-05-14T07:53:17.573Z,16.87
2023-05-14T07:55:47.555Z,16.99
2023-05-14T07:58:14.185Z,17.10
2023-05-14T08:00:40.738Z,17.14
2023-05-14T08:03:07.349Z,17.18
2023-05-14T08:05:33.962Z,17.02
2023-05-14T08:08:00.930Z,17.06
2023-05-14T08:10:27.967Z,17.11
2023-05-14T08:12:55.124Z,17.19
2023-05-14T08:15:21.651Z,17.29
2023-05-14T08:17:50.896Z,17.44
2023-05-14T08:20:18.117Z,17.47
2023-05-14T08:22:44.616Z,17.37
2023-05-14T08:25:11.407Z,17.34
2023-05-14T08:27:37.915Z,17.29
2023-05-14T08:30:05.751Z,17.34
2023-05-14T08:32:32.268Z,17.39
2023-05-14T08:34:58.953Z,17.50
2023-05-14T08:37:25.638Z,17.58
2023-05-14T08:40:01.566Z,17.70
2023-05-14T08:42:30.429Z,17.83
2023-05-14T08:45:01.794Z,17.94
2023-05-14T08:47:30.160Z,17.94
2023-05-14T08:50:05.832Z,17.91
2023-05-14T08:52:33.316Z,17.90
2023-05-14T08:55:03.159Z,17.91
2023-05-14T08:57:33.158Z,18.02
2023-05-14T09:00:01.671Z,18.08
2023-05-14T09:02:31.813Z,18.16
2023-05-14T09:05:03.384Z,18.13
2023-05-14T09:07:31.237Z,18.00
2023-05-14T09:09:58.890Z,17.97
2023-05-14T09:12:25.531Z,17.95
2023-05-14T09:14:54.367Z,17.97
2023-05-14T09:17:21.354Z,18.03
2023-05-14T09:19:52.341Z,18.13
2023-05-14T09:22:20.318Z,18.16
2023-05-14T09:33:58.682Z,18.14
2023-05-14T09:36:27.780Z,18.12
2023-05-14T09:38:59.237Z,18.08
2023-05-14T09:41:27.552Z,18.02
2023-05-14T09:43:57.353Z,18.05
2023-05-14T09:46:30.181Z,18.08
2023-05-14T09:48:58.548Z,18.19
2023-05-14T09:51:26.532Z,18.19
2023-05-14T09:53:56.257Z,18.07
2023-05-14T09:56:24.351Z,18.15
2023-05-14T09:58:52.274Z,18.19
2023-05-14T10:01:21.813Z,18.25
2023-05-14T10:03:50.735Z,18.30
2023-05-14T10:06:23.703Z,18.37
2023-05-14T10:09:01.494Z,18.39
2023-05-14T10:11:36.512Z,18.30
2023-05-14T10:14:12.485Z,18.34
2023-05-14T10:16:44.078Z,18.34
2023-05-14T10:19:13.960Z,18.37
2023-05-14T10:21:46.279Z,18.41
2023-05-14T10:24:18.509Z,18.47
2023-05-14T10:26:50.266Z,18.50
2023-05-14T10:29:18.494Z,18.46
2023-05-14T10:31:54.207Z,18.42
2023-05-14T10:34:32.813Z,18.45
2023-05-14T10:37:06.765Z,18.37
2023-05-14T10:39:42.500Z,18.40
2023-05-14T10:42:15.172Z,18.51
2023-05-14T10:44:48.655Z,18.58
2023-05-14T10:47:19.617Z,18.71
2023-05-14T10:49:49.287Z,18.69
2023-05-14T10:52:22.063Z,18.68
2023-05-14T10:54:59.224Z,18.69
2023-05-14T10:57:32.777Z,18.69
2023-05-14T11:00:01.986Z,18.71
2023-05-14T11:02:37.874Z,18.70
2023-05-14T11:05:15.706Z,18.71
2023-05-14T11:07:46.222Z,18.67
2023-05-14T11:10:22.102Z,18.76
2023-05-14T11:12:51.760Z,18.74
2023-05-14T11:15:21.832Z,18.73
2023-05-14T11:17:51.224Z,18.64
2023-05-14T11:20:20.318Z,18.59
2023-05-14T11:22:51.538Z,18.60
2023-05-14T11:25:19.887Z,18.62
2023-05-14T11:27:48.921Z,18.68
2023-05-14T11:30:19.220Z,18.69
2023-05-14T11:32:50.041Z,18.73
2023-05-14T11:35:18.605Z,18.73
2023-05-14T11:37:52.330Z,18.66
2023-05-14T11:40:20.825Z,18.54
2023-05-14T11:42:52.165Z,18.52
2023-05-14T11:45:27.440Z,18.61
2023-05-14T11:47:56.049Z,18.75
2023-05-14T11:50:24.264Z,18.80
2023-05-14T11:55:49.659Z,18.84
2023-05-14T11:58:19.049Z,18.86
2023-05-14T12:00:50.639Z,18.92
2023-05-14T12:03:26.771Z,18.89
2023-05-14T12:05:59.568Z,18.86
2023-05-14T12:08:30.219Z,18.84
2023-05-14T12:11:00.030Z,18.79
2023-05-14T12:13:30.736Z,18.71
2023-05-14T12:16:00.944Z,18.67
2023-05-14T12:18:31.494Z,18.66
2023-05-14T12:21:04.306Z,18.70
2023-05-14T12:23:33.414Z,18.72
2023-05-14T12:26:03.961Z,18.82
2023-05-14T12:28:34.257Z,18.90
2023-05-14T12:31:03.659Z,18.88
2023-05-14T12:33:31.649Z,18.83
2023-05-14T12:36:17.571Z,18.84
2023-05-14T12:39:00.746Z,18.84
2023-05-14T12:41:28.815Z,18.86
2023-05-14T12:43:58.036Z,18.85
2023-05-14T12:46:29.013Z,18.82
2023-05-14T12:48:59.989Z,18.78
2023-05-14T12:51:27.975Z,18.73
2023-05-14T12:53:55.943Z,18.69
2023-05-14T12:56:28.218Z,18.63
2023-05-14T12:58:56.446Z,18.53
2023-05-14T13:01:24.931Z,18.45
2023-05-14T13:03:53.034Z,18.40
2023-05-14T13:06:21.824Z,18.37
2023-05-14T13:08:49.844Z,18.37
2023-05-14T13:11:17.766Z,18.39
2023-05-14T13:13:45.782Z,18.45
2023-05-14T13:16:16.946Z,18.50
2023-05-14T13:18:45.073Z,18.50
2023-05-14T13:21:13.086Z,18.52
2023-05-14T13:23:41.047Z,18.56
2023-05-14T13:26:09.040Z,18.54
2023-05-14T13:28:36.931Z,18.54
2023-05-14T13:31:10.561Z,18.55
2023-05-14T13:33:42.007Z,18.62
2023-05-14T13:36:11.785Z,18.62
2023-05-14T13:38:39.767Z,18.62
2023-05-14T13:41:08.354Z,18.61
2023-05-14T13:43:36.333Z,18.60
2023-05-14T13:46:06.041Z,18.61
2023-05-14T13:48:35.639Z,18.63
2023-05-14T13:51:03.700Z,18.64
2023-05-14T13:53:31.778Z,18.71
2023-05-14T13:56:01.690Z,18.69
2023-05-14T13:58:29.749Z,18.63
2023-05-14T14:00:57.750Z,18.64
2023-05-14T14:03:25.774Z,18.61
2023-05-14T14:05:53.714Z,18.54
2023-05-14T14:08:23.982Z,18.48
2023-05-14T14:10:54.719Z,18.48
2023-05-14T14:13:23.020Z,18.47
2023-05-14T14:15:51.916Z,18.44
2023-05-14T14:18:19.919Z,18.43
2023-05-14T14:21:06.324Z,18.38
2023-05-14T14:24:30.973Z,18.33
2023-05-14T14:27:09.124Z,18.27
2023-05-14T14:29:40.089Z,18.22
2023-05-14T14:32:06.970Z,18.22
2023-05-14T14:34:33.864Z,18.20
2023-05-14T14:37:00.368Z,18.17
2023-05-14T14:39:27.603Z,18.13
2023-05-14T14:41:54.416Z,18.13
2023-05-14T14:44:20.912Z,18.13
2023-05-14T14:46:47.466Z,18.08
2023-05-14T14:49:13.999Z,18.08
2023-05-14T14:51:40.551Z,18.02
2023-05-14T14:54:07.085Z,17.96
2023-05-14T14:56:33.670Z,17.90
2023-05-14T14:59:00.836Z,17.83
2023-05-14T15:01:27.429Z,17.83
2023-05-14T15:03:54.460Z,17.77
2023-05-14T15:06:21.028Z,17.72
2023-05-14T15:08:47.530Z,17.68
2023-05-14T15:11:14.292Z,17.69
2023-05-14T15:13:41.472Z,17.69
2023-05-14T15:16:08.219Z,17.66
2023-05-14T15:18:34.844Z,17.64
2023-05-14T15:21:01.604Z,17.64
2023-05-14T15:23:28.159Z,17.58
2023-05-14T15:25:54.817Z,17.57
2023-05-14T15:28:21.374Z,17.61
2023-05-14T15:30:48.073Z,17.58
2023-05-14T15:33:18.551Z,17.56
2023-05-14T15:35:45.453Z,17.54
2023-05-14T15:38:11.964Z,17.52
2023-05-14T15:40:39.852Z,17.50
2023-05-14T15:43:06.479Z,17.47
2023-05-14T15:45:33.031Z,17.45
2023-05-14T15:48:00.296Z,17.46
2023-05-14T15:50:26.997Z,17.42
2023-05-14T15:52:53.634Z,17.41
2023-05-14T15:55:20.504Z,17.37
2023-05-14T15:57:47.116Z,17.35
2023-05-14T16:00:14.117Z,17.30
2023-05-14T16:02:40.868Z,17.25
2023-05-14T16:05:07.888Z,17.22
2023-05-14T16:07:35.236Z,17.20
2023-05-14T16:10:01.865Z,17.18
2023-05-14T16:12:28.620Z,17.12
2023-05-14T16:14:56.885Z,17.05
2023-05-14T16:17:23.560Z,16.99
2023-05-14T16:19:50.264Z,16.94
2023-05-14T16:22:24.035Z,16.92
2023-05-14T16:24:52.358Z,16.90
2023-05-14T16:27:18.961Z,16.89
2023-05-14T16:29:45.791Z,16.88
2023-05-14T16:32:12.622Z,16.86
2023-05-14T16:34:39.310Z,16.84
2023-05-14T16:37:05.906Z,16.82
2023-05-14T16:39:32.443Z,16.80
2023-05-14T16:41:59.087Z,16.78
2023-05-14T16:44:25.693Z,16.77
2023-05-14T16:46:52.389Z,16.75
2023-05-14T16:49:21.631Z,16.73
2023-05-14T16:51:48.418Z,16.67
2023-05-14T16:54:15.001Z,16.64
2023-05-14T16:56:41.622Z,16.64
2023-05-14T16:59:08.283Z,16.62
2023-05-14T17:01:35.531Z,16.59
2023-05-14T17:04:02.413Z,16.59
2023-05-14T17:06:29.221Z,16.58
2023-05-14T17:08:55.794Z,16.56
2023-05-14T17:11:22.956Z,16.53
2023-05-14T17:13:58.343Z,16.48
2023-05-14T17:16:25.377Z,16.43
2023-05-14T17:18:54.374Z,16.40
2023-05-14T17:21:20.911Z,16.37
2023-05-14T17:23:47.872Z,16.35
2023-05-14T17:26:15.763Z,16.33
2023-05-14T17:28:42.259Z,16.32
2023-05-14T17:31:08.936Z,16.31
2023-05-14T17:33:35.521Z,16.30
2023-05-14T17:45:20.868Z,16.21
2023-05-14T17:47:49.788Z,16.18
2023-05-14T17:50:18.382Z,16.14
2023-05-14T17:52:47.708Z,16.13
2023-05-14T17:55:17.745Z,16.11
2023-05-14T17:57:46.227Z,16.05
2023-05-14T18:00:14.481Z,16.00
2023-05-14T18:02:42.838Z,16.01
2023-05-14T18:05:10.990Z,15.99
2023-05-14T18:07:39.001Z,15.97
2023-05-14T18:10:07.855Z,15.92
2023-05-14T18:12:35.925Z,15.85
2023-05-14T18:15:04.413Z,15.82
2023-05-14T18:17:32.366Z,15.76
2023-05-14T18:20:05.642Z,15.65
2023-05-14T18:22:34.175Z,15.60
2023-05-14T18:25:02.544Z,15.54
2023-05-14T18:27:31.223Z,15.52
2023-05-14T18:29:59.418Z,15.50
2023-05-14T18:32:27.305Z,15.42
2023-05-14T18:34:56.072Z,15.21
2023-05-14T18:37:24.818Z,15.06
2023-05-14T18:39:52.803Z,14.91
2023-05-14T18:42:21.436Z,14.84
2023-05-14T18:44:49.367Z,14.75
2023-05-14T18:47:17.360Z,14.63
2023-05-14T18:49:46.993Z,14.55
2023-05-14T18:52:14.924Z,14.50
2023-05-14T18:54:42.970Z,14.45
2023-05-14T18:57:10.890Z,14.40
2023-05-14T18:59:39.040Z,14.35
2023-05-14T19:02:06.975Z,14.33
2023-05-14T19:04:47.761Z,14.30
2023-05-14T19:07:20.144Z,14.25
2023-05-14T19:09:48.456Z,14.20
2023-05-14T19:12:16.500Z,14.18
2023-05-14T19:14:44.375Z,14.15
2023-05-14T19:17:12.332Z,14.16
2023-05-14T19:19:40.411Z,14.12
2023-05-14T19:22:08.329Z,14.08
2023-05-14T19:24:37.783Z,14.09
2023-05-14T19:27:06.061Z,14.06
2023-05-14T19:29:34.275Z,14.05
2023-05-14T19:32:02.957Z,13.97
2023-05-14T19:34:31.094Z,13.89
2023-05-14T19:36:59.092Z,13.88
2023-05-14T19:39:27.229Z,13.83
2023-05-14T19:41:55.524Z,13.76
2023-05-14T19:44:23.496Z,13.72
2023-05-14T19:46:51.668Z,13.68
2023-05-14T19:49:19.677Z,13.64
2023-05-14T19:51:48.675Z,13.62
2023-05-14T19:54:16.779Z,13.61
2023-05-14T19:56:44.795Z,13.62
2023-05-14T19:59:12.750Z,13.59
2023-05-14T20:01:41.705Z,13.56
2023-05-14T20:04:09.758Z,13.52
2023-05-14T20:06:38.229Z,13.49
2023-05-14T20:09:06.281Z,13.40
2023-05-14T20:11:34.211Z,13.30
2023-05-14T20:14:02.182Z,13.21
2023-05-14T20:16:31.706Z,13.18
2023-05-14T20:18:59.845Z,13.15
2023-05-14T20:21:28.062Z,13.08
2023-05-14T20:23:56.227Z,13.04
2023-05-14T20:26:24.258Z,13.00
2023-05-14T20:28:52.342Z,12.95
2023-05-14T20:31:21.672Z,12.88
2023-05-14T20:33:49.945Z,12.83
2023-05-14T20:36:20.600Z,12.81
2023-05-14T20:38:48.760Z,12.78
2023-05-14T20:41:16.740Z,12.76
2023-05-14T20:43:44.710Z,12.74
2023-05-14T20:46:12.804Z,12.71
2023-05-14T20:48:43.274Z,12.69
2023-05-14T20:51:11.144Z,12.66
2023-05-14T20:53:39.638Z,12.65
2023-05-14T20:56:07.720Z,12.62
2023-05-14T20:58:35.726Z,12.61
2023-05-14T21:01:04.795Z,12.57
2023-05-14T21:03:32.928Z,12.53
2023-05-14T21:06:02.636Z,12.43
2023-05-14T21:08:33.026Z,12.35
2023-05-14T21:11:01.007Z,12.29
2023-05-14T21:13:29.090Z,12.22
2023-05-14T21:15:57.145Z,12.16
2023-05-14T21:18:26.992Z,12.07
2023-05-14T21:20:55.063Z,11.97
2023-05-14T21:23:31.793Z,11.91
2023-05-14T21:25:59.765Z,11.83
2023-05-14T21:28:27.657Z,11.78
2023-05-14T21:30:55.531Z,11.77
2023-05-14T21:33:23.796Z,11.75
2023-05-14T21:35:51.752Z,11.73
2023-05-14T21:38:20.171Z,11.69
2023-05-14T21:40:48.145Z,11.59
2023-05-14T21:43:16.125Z,11.55
2023-05-14T21:45:46.741Z,11.51
2023-05-14T21:48:14.774Z,11.44
2023-05-14T21:50:42.817Z,11.41
2023-05-14T21:53:10.840Z,11.34
2023-05-14T21:55:39.071Z,11.31
2023-05-14T21:58:07.957Z,11.27
2023-05-14T22:00:35.866Z,11.23
2023-05-14T22:03:04.061Z,11.20
2023-05-14T22:05:32.085Z,11.16
2023-05-14T22:08:00.110Z,11.14
2023-05-14T22:10:28.099Z,11.11
2023-05-14T22:12:56.034Z,11.07
2023-05-14T22:15:24.142Z,11.04
2023-05-14T22:17:52.465Z,11.03
2023-05-14T22:20:20.371Z,11.02
2023-05-14T22:22:48.430Z,11.00
2023-05-14T22:25:16.521Z,10.97
2023-05-14T22:27:44.440Z,10.95
2023-05-14T22:30:12.992Z,10.92
2023-05-14T22:32:40.952Z,10.91
2023-05-14T22:35:09.114Z,10.89
2023-05-14T22:37:37.376Z,10.86
2023-05-14T22:40:06.293Z,10.84
2023-05-14T22:42:34.192Z,10.84
2023-05-14T22:45:02.129Z,10.81
2023-05-14T22:47:30.152Z,10.83
2023-05-14T22:49:58.049Z,10.81
2023-05-14T22:52:26.158Z,10.83
2023-05-14T22:54:54.648Z,10.85
2023-05-14T22:57:23.694Z,10.86
2023-05-14T22:59:51.512Z,10.88
2023-05-14T23:02:19.496Z,10.86
2023-05-14T23:04:47.627Z,10.87
2023-05-14T23:07:15.900Z,10.86
2023-05-14T23:09:43.821Z,10.88
2023-05-14T23:12:12.084Z,10.88
2023-05-14T23:14:39.964Z,10.86
2023-05-14T23:17:07.949Z,10.88
2023-05-14T23:19:36.091Z,10.89
2023-05-14T23:22:04.336Z,10.85
2023-05-14T23:24:32.257Z,10.83
2023-05-14T23:27:00.208Z,10.83
2023-05-14T23:29:28.150Z,10.82
2023-05-14T23:31:56.094Z,10.83
2023-05-14T23:34:24.024Z,10.81
2023-05-14T23:36:52.116Z,10.79
2023-05-14T23:39:20.068Z,10.77
2023-05-14T23:41:47.922Z,10.75
2023-05-14T23:44:15.790Z,10.75
2023-05-14T23:46:44.218Z,10.73
2023-05-14T23:49:12.611Z,10.71
2023-05-14T23:51:40.668Z,10.70
2023-05-14T23:54:08.552Z,10.71
2023-05-14T23:56:36.560Z,10.69
2023-05-14T23:59:04.903Z,10.68
